Time;durP1;ratioP1;P1;durP2;ratioP2;P2;SDS_P1;SDS_P2;PMS_P1;PMS_P2;Temp;Humidity;BMP_temperature;BMP_pressure;BME280_temperature;BME280_humidity;BME280_pressure;Samples;Min_cycle;Max_cycle;Signal;HPM_P1;HPM_P2
2022/10/17 00:00:47;;;;;;;15.47;5.30;;;16.50;90.60;;;;;;5052524;28;20172;-71
2022/10/17 00:03:14;;;;;;;15.70;4.47;;;16.60;90.50;;;;;;5053062;28;20207;-71
2022/10/17 00:05:45;;;;;;;9.23;4.70;;;16.70;90.00;;;;;;5047591;28;20233;-69
2022/10/17 00:08:14;;;;;;;14.60;4.80;;;16.90;90.40;;;;;;5051053;28;20688;-72
2022/10/17 00:10:42;;;;;;;12.57;4.00;;;17.10;90.10;;;;;;5053189;28;20225;-70
2022/10/17 00:13:10;;;;;;;8.37;3.03;;;17.00;88.00;;;;;;5052524;28;20187;-72
2022/10/17 00:15:38;;;;;;;14.73;3.50;;;17.10;86.70;;;;;;5049680;28;20203;-69
2022/10/17 00:18:05;;;;;;;10.30;3.10;;;17.40;86.60;;;;;;5051260;28;20246;-73
2022/10/17 00:20:35;;;;;;;10.53;2.57;;;17.90;85.80;;;;;;5051126;28;20182;-70
2022/10/17 00:23:03;;;;;;;17.80;2.50;;;18.00;83.60;;;;;;5051219;28;20918;-72
2022/10/17 00:25:30;;;;;;;14.93;2.97;;;18.10;82.70;;;;;;5046661;28;20195;-69
2022/10/17 00:27:57;;;;;;;13.27;2.60;;;18.20;82.00;;;;;;5043665;28;20186;-69
2022/10/17 00:30:25;;;;;;;8.63;2.33;;;18.20;80.80;;;;;;5041865;28;20180;-69
2022/10/17 00:32:52;;;;;;;9.03;1.90;;;18.30;81.20;;;;;;5060132;28;20560;-70
2022/10/17 00:35:19;;;;;;;12.37;2.17;;;18.30;79.50;;;;;;5051980;28;20180;-70
2022/10/17 00:37:46;;;;;;;10.17;2.33;;;18.30;77.30;;;;;;5055326;28;20184;-70
2022/10/17 00:40:14;;;;;;;16.53;2.67;;;18.40;76.80;;;;;;5052438;28;20176;-70
2022/10/17 00:42:41;;;;;;;12.37;2.30;;;18.40;77.60;;;;;;5050950;28;20216;-70
2022/10/17 00:45:29;;;;;;;7.60;2.10;;;18.50;78.10;;;;;;5048541;28;20301;-69
2022/10/17 00:48:08;;;;;;;7.40;2.50;;;18.70;77.30;;;;;;5051568;28;20188;-71
2022/10/17 00:50:40;;;;;;;11.20;2.40;;;18.80;75.40;;;;;;5051763;28;20172;-70
2022/10/17 00:53:08;;;;;;;7.77;2.40;;;18.80;76.40;;;;;;5052026;28;20206;-67
2022/10/17 00:55:44;;;;;;;8.03;1.60;;;18.50;76.10;;;;;;5049525;28;20189;-70
2022/10/17 00:58:11;;;;;;;6.93;1.77;;;18.40;76.40;;;;;;5056184;28;20206;-70
2022/10/17 01:00:40;;;;;;;11.13;2.43;;;18.30;75.10;;;;;;5050836;28;20188;-70
2022/10/17 01:03:07;;;;;;;14.93;2.00;;;18.20;76.30;;;;;;5050758;28;20560;-66
2022/10/17 01:05:35;;;;;;;8.67;2.53;;;18.00;75.50;;;;;;5050303;28;20192;-67
2022/10/17 01:08:03;;;;;;;14.40;2.17;;;18.00;75.70;;;;;;5051233;28;20251;-69
2022/10/17 01:10:47;;;;;;;8.73;2.47;;;17.90;75.10;;;;;;5051866;28;20180;-67
2022/10/17 01:13:24;;;;;;;6.27;1.87;;;18.00;76.20;;;;;;5051829;28;20626;-67
2022/10/17 01:16:10;;;;;;;5.10;1.63;;;17.90;75.60;;;;;;5052162;28;20175;-69
2022/10/17 01:18:48;;;;;;;9.33;2.23;;;17.80;75.80;;;;;;5051756;28;20198;-67
2022/10/17 01:21:37;;;;;;;7.03;2.00;;;17.90;75.80;;;;;;5051996;28;20179;-69
2022/10/17 01:24:21;;;;;;;6.07;1.80;;;18.00;75.30;;;;;;5051490;28;20208;-70
2022/10/17 01:27:18;;;;;;;10.67;2.00;;;18.10;74.00;;;;;;5051993;28;20507;-70
2022/10/17 01:30:00;;;;;;;10.00;1.60;;;18.20;74.40;;;;;;5052035;28;20179;-67
2022/10/17 01:33:02;;;;;;;9.17;1.90;;;18.00;73.00;;;;;;5054622;28;20171;-72
2022/10/17 01:35:41;;;;;;;5.43;1.90;;;18.00;72.60;;;;;;5046181;28;20183;-71
2022/10/17 01:38:14;;;;;;;7.97;1.97;;;18.10;72.90;;;;;;5054263;28;20186;-69
2022/10/17 01:41:06;;;;;;;10.07;2.03;;;18.20;74.00;;;;;;5054338;28;20223;-68
2022/10/17 01:43:50;;;;;;;9.33;2.00;;;18.30;73.90;;;;;;5054098;28;20208;-69
2022/10/17 01:46:37;;;;;;;10.63;2.23;;;18.50;72.90;;;;;;5045858;28;20264;-69
2022/10/17 01:49:07;;;;;;;5.20;1.60;;;18.60;71.60;;;;;;5055575;28;20277;-70
2022/10/17 01:51:38;;;;;;;8.90;1.70;;;18.50;69.70;;;;;;5055211;28;20184;-70
2022/10/17 01:54:31;;;;;;;6.53;1.53;;;18.60;70.00;;;;;;5055573;28;20188;-69
2022/10/17 01:57:06;;;;;;;8.53;2.20;;;18.80;70.50;;;;;;5040978;28;20180;-70
2022/10/17 01:59:41;;;;;;;10.70;2.23;;;19.00;70.70;;;;;;5055556;28;20516;-69
2022/10/17 02:02:09;;;;;;;8.60;1.60;;;19.00;68.70;;;;;;5054827;28;20200;-69
2022/10/17 02:04:37;;;;;;;6.77;2.10;;;19.20;67.30;;;;;;5054545;28;20682;-70
2022/10/17 02:07:12;;;;;;;9.27;1.93;;;19.30;69.10;;;;;;5055012;28;20175;-69
2022/10/17 02:09:40;;;;;;;5.97;1.90;;;19.30;67.90;;;;;;5054870;28;20695;-68
2022/10/17 02:12:23;;;;;;;4.87;1.60;;;19.20;68.90;;;;;;5054856;28;20537;-69
2022/10/17 02:15:23;;;;;;;8.90;2.10;;;19.30;68.20;;;;;;5054988;28;20513;-72
2022/10/17 02:18:27;;;;;;;11.53;2.03;;;19.10;69.10;;;;;;5053899;28;20221;-71
2022/10/17 02:21:21;;;;;;;9.33;2.10;;;19.00;69.60;;;;;;5045967;28;20760;-70
2022/10/17 02:24:12;;;;;;;10.53;2.03;;;19.10;69.00;;;;;;5051756;28;20228;-69
2022/10/17 02:26:52;;;;;;;6.37;1.83;;;19.00;69.50;;;;;;5045500;28;20261;-68
2022/10/17 02:29:33;;;;;;;10.10;1.97;;;18.90;68.00;;;;;;5046989;28;20325;-69
2022/10/17 02:32:16;;;;;;;11.10;2.00;;;18.90;69.20;;;;;;5048639;28;20243;-70
2022/10/17 02:34:49;;;;;;;6.40;1.77;;;19.00;69.00;;;;;;5046529;28;20602;-67
2022/10/17 02:37:22;;;;;;;10.87;2.03;;;19.00;68.10;;;;;;5052871;28;20177;-68
2022/10/17 02:39:51;;;;;;;6.73;1.80;;;19.10;68.80;;;;;;5051614;28;20200;-68
2022/10/17 02:42:20;;;;;;;12.10;2.10;;;19.10;68.50;;;;;;5052203;28;20267;-70
2022/10/17 02:44:48;;;;;;;7.80;2.00;;;19.10;68.80;;;;;;5051635;28;20211;-69
2022/10/17 02:47:36;;;;;;;8.37;2.77;;;19.00;68.30;;;;;;5046645;28;20258;-69
2022/10/17 02:50:05;;;;;;;9.43;1.97;;;19.30;68.70;;;;;;5047586;28;20180;-70
2022/10/17 02:52:45;;;;;;;11.93;2.30;;;19.40;68.00;;;;;;5051101;28;20172;-71
2022/10/17 02:55:32;;;;;;;8.90;2.07;;;19.70;67.40;;;;;;5052993;28;20241;-70
2022/10/17 02:58:18;;;;;;;10.57;2.57;;;20.00;67.60;;;;;;5051064;28;20619;-71
2022/10/17 03:00:46;;;;;;;13.70;2.97;;;20.00;66.40;;;;;;5050384;28;20179;-73
2022/10/17 03:03:31;;;;;;;10.03;2.07;;;20.30;64.90;;;;;;5055911;28;20215;-69
2022/10/17 03:05:58;;;;;;;6.73;2.00;;;20.10;65.90;;;;;;5051790;28;20196;-69
2022/10/17 03:08:26;;;;;;;8.63;1.90;;;20.00;66.00;;;;;;5053395;28;20180;-71
2022/10/17 03:10:53;;;;;;;12.57;2.73;;;19.60;66.70;;;;;;5053058;28;20179;-71
2022/10/17 03:13:20;;;;;;;12.43;2.10;;;19.50;66.40;;;;;;5053931;28;20233;-69
2022/10/17 03:15:48;;;;;;;9.40;2.20;;;19.30;66.50;;;;;;5050456;28;20202;-68
2022/10/17 03:18:15;;;;;;;12.40;1.80;;;19.30;67.00;;;;;;5047758;28;20254;-69
2022/10/17 03:20:42;;;;;;;9.27;2.30;;;19.20;68.40;;;;;;5047112;28;20187;-69
2022/10/17 03:23:10;;;;;;;10.00;1.90;;;19.10;68.90;;;;;;5051061;28;20658;-68
2022/10/17 03:25:37;;;;;;;12.27;2.07;;;19.00;69.50;;;;;;5052391;28;20187;-69
2022/10/17 03:28:05;;;;;;;11.47;2.23;;;18.80;69.60;;;;;;5052520;28;20203;-70
2022/10/17 03:30:33;;;;;;;13.43;2.07;;;18.80;68.60;;;;;;5051310;28;20184;-69
2022/10/17 03:33:00;;;;;;;8.57;1.83;;;18.70;68.70;;;;;;5051764;28;20673;-69
2022/10/17 03:35:28;;;;;;;7.07;1.83;;;18.80;68.90;;;;;;5049202;28;20233;-68
2022/10/17 03:37:56;;;;;;;9.87;2.03;;;18.90;68.40;;;;;;5052093;28;20663;-69
2022/10/17 03:40:23;;;;;;;12.70;2.07;;;19.00;68.10;;;;;;5052543;28;20187;-70
2022/10/17 03:42:50;;;;;;;11.03;2.57;;;19.10;68.70;;;;;;5050104;28;20207;-71
2022/10/17 03:45:18;;;;;;;17.13;2.30;;;19.00;68.70;;;;;;5051661;28;20263;-69
2022/10/17 03:47:45;;;;;;;11.30;2.03;;;18.90;68.70;;;;;;5051107;28;20260;-69
2022/10/17 03:50:12;;;;;;;9.27;2.60;;;18.90;68.30;;;;;;5048281;28;20270;-69
2022/10/17 03:52:40;;;;;;;14.53;2.50;;;19.00;68.60;;;;;;5049256;28;20200;-71
2022/10/17 03:55:07;;;;;;;10.97;2.37;;;19.20;67.60;;;;;;5047677;28;20168;-69
2022/10/17 03:57:36;;;;;;;10.87;2.60;;;19.30;67.40;;;;;;5051286;28;20184;-68
2022/10/17 04:00:04;;;;;;;12.47;2.40;;;19.70;66.30;;;;;;5046033;28;20202;-68
2022/10/17 04:02:31;;;;;;;6.83;1.70;;;19.90;64.80;;;;;;5049828;28;20266;-69
2022/10/17 04:04:59;;;;;;;10.27;2.13;;;20.20;64.00;;;;;;5042819;28;20254;-69
2022/10/17 04:07:26;;;;;;;9.50;1.90;;;20.50;63.20;;;;;;5049103;28;20214;-70
2022/10/17 04:09:53;;;;;;;8.13;1.97;;;21.20;61.70;;;;;;5038224;28;20199;-71
2022/10/17 04:12:21;;;;;;;14.13;2.17;;;21.20;60.50;;;;;;5047833;28;20669;-71
2022/10/17 04:14:48;;;;;;;15.30;2.40;;;21.00;60.30;;;;;;5048123;28;20190;-70
2022/10/17 04:17:15;;;;;;;10.00;2.37;;;20.80;61.80;;;;;;5049772;28;20194;-71
2022/10/17 04:19:42;;;;;;;6.70;1.63;;;20.70;62.20;;;;;;5051101;28;20737;-72
2022/10/17 04:22:10;;;;;;;13.60;2.47;;;20.30;63.10;;;;;;5050265;28;20662;-70
2022/10/17 04:24:37;;;;;;;9.57;2.17;;;20.50;63.10;;;;;;5045741;28;20651;-69
2022/10/17 04:27:05;;;;;;;6.67;1.43;;;20.70;61.00;;;;;;5050526;28;20192;-69
2022/10/17 04:29:32;;;;;;;9.83;1.80;;;20.60;61.70;;;;;;5048569;28;20298;-69
2022/10/17 04:31:59;;;;;;;13.43;2.47;;;20.40;62.40;;;;;;5048051;28;20180;-69
2022/10/17 04:34:27;;;;;;;12.03;2.03;;;20.00;63.40;;;;;;5051677;28;20527;-68
2022/10/17 04:36:54;;;;;;;7.50;2.00;;;19.80;63.60;;;;;;5046821;28;20187;-69
2022/10/17 04:39:21;;;;;;;12.87;2.27;;;19.60;64.80;;;;;;5049844;28;20209;-69
2022/10/17 04:41:49;;;;;;;5.37;1.50;;;19.30;65.50;;;;;;5044567;28;20232;-68
2022/10/17 04:44:16;;;;;;;10.23;2.33;;;19.30;66.50;;;;;;5045494;28;20690;-69
2022/10/17 04:46:44;;;;;;;8.40;1.97;;;19.00;66.80;;;;;;5048188;28;20685;-68
2022/10/17 04:49:11;;;;;;;10.77;1.90;;;19.10;67.10;;;;;;5043799;28;20618;-69
2022/10/17 04:51:39;;;;;;;6.63;2.53;;;18.80;66.50;;;;;;5049500;28;20187;-69
2022/10/17 04:54:06;;;;;;;7.33;2.47;;;18.90;67.30;;;;;;5044429;28;20187;-69
2022/10/17 04:56:34;;;;;;;6.00;2.10;;;18.90;66.80;;;;;;5050200;28;20180;-69
2022/10/17 04:59:01;;;;;;;10.37;2.17;;;18.90;66.40;;;;;;5051081;28;20661;-70
2022/10/17 05:01:28;;;;;;;9.67;1.90;;;19.00;67.20;;;;;;5049640;28;20253;-69
2022/10/17 05:03:56;;;;;;;9.27;1.90;;;18.90;66.80;;;;;;5052102;28;20211;-68
2022/10/17 05:06:27;;;;;;;9.33;2.97;;;18.90;66.00;;;;;;5054834;28;20175;-69
2022/10/17 05:08:54;;;;;;;8.93;2.00;;;19.00;66.70;;;;;;5055631;28;20784;-68
2022/10/17 05:11:30;;;;;;;7.37;1.90;;;18.90;67.00;;;;;;5055420;28;20626;-68
2022/10/17 05:14:00;;;;;;;10.67;1.77;;;18.80;67.10;;;;;;5051742;28;20176;-69
2022/10/17 05:16:29;;;;;;;6.33;2.00;;;18.60;66.40;;;;;;5055004;28;20215;-69
2022/10/17 05:18:58;;;;;;;11.03;2.33;;;18.50;67.10;;;;;;5052264;28;20188;-69
2022/10/17 05:21:27;;;;;;;9.00;1.73;;;18.40;67.30;;;;;;5053064;28;20549;-71
2022/10/17 05:23:55;;;;;;;8.73;1.90;;;18.30;67.30;;;;;;5039960;28;20244;-70
2022/10/17 05:26:23;;;;;;;13.47;1.60;;;18.30;68.00;;;;;;5047902;28;20284;-70
2022/10/17 05:28:53;;;;;;;6.17;1.90;;;18.30;66.90;;;;;;5046024;28;20650;-70
2022/10/17 05:31:20;;;;;;;7.13;1.80;;;18.50;66.90;;;;;;5049051;28;20188;-70
2022/10/17 05:33:48;;;;;;;8.10;2.47;;;18.70;66.60;;;;;;5051789;28;20188;-71
2022/10/17 05:36:15;;;;;;;4.70;1.17;;;18.80;65.90;;;;;;5049389;28;20217;-71
2022/10/17 05:38:43;;;;;;;12.97;1.80;;;19.00;64.70;;;;;;5050845;28;20184;-70
2022/10/17 05:41:10;;;;;;;10.07;1.93;;;20.30;61.20;;;;;;5052767;28;20180;-71
2022/10/17 05:43:38;;;;;;;7.43;1.80;;;20.30;60.30;;;;;;5052362;28;20220;-69
2022/10/17 05:46:06;;;;;;;8.03;1.73;;;20.20;60.70;;;;;;5045706;28;20224;-69
2022/10/17 05:48:34;;;;;;;9.63;2.00;;;20.10;60.70;;;;;;5049336;28;20208;-69
2022/10/17 05:51:05;;;;;;;9.63;1.90;;;20.00;61.90;;;;;;5053565;28;20199;-71
2022/10/17 05:53:34;;;;;;;7.10;1.77;;;19.50;63.40;;;;;;5051523;28;20661;-71
2022/10/17 05:56:04;;;;;;;7.57;2.07;;;20.00;61.60;;;;;;5046631;28;20184;-70
2022/10/17 05:58:33;;;;;;;5.80;1.43;;;21.30;58.30;;;;;;5044719;28;20199;-69
2022/10/17 06:01:03;;;;;;;8.13;1.80;;;21.70;55.50;;;;;;5049428;28;20230;-70
2022/10/17 06:03:30;;;;;;;6.17;1.80;;;21.00;58.00;;;;;;5049851;28;20259;-70
2022/10/17 06:06:04;;;;;;;9.07;1.93;;;20.80;58.70;;;;;;5051064;28;20186;-69
2022/10/17 06:08:31;;;;;;;8.73;1.77;;;20.30;60.90;;;;;;5050722;28;20190;-69
2022/10/17 06:10:59;;;;;;;7.70;1.90;;;20.00;61.10;;;;;;5043375;28;20179;-69
2022/10/17 06:13:27;;;;;;;8.03;1.57;;;19.60;62.90;;;;;;5052505;28;20180;-70
2022/10/17 06:15:54;;;;;;;7.20;1.60;;;20.30;60.50;;;;;;5053475;28;20195;-68
2022/10/17 06:18:22;;;;;;;8.37;1.97;;;21.10;59.30;;;;;;5047730;28;20192;-74
2022/10/17 06:20:49;;;;;;;9.07;1.70;;;21.20;57.80;;;;;;5050390;28;20193;-69
2022/10/17 06:23:17;;;;;;;7.37;1.60;;;20.80;58.70;;;;;;5042602;28;20730;-69
2022/10/17 06:25:44;;;;;;;6.00;1.63;;;20.20;59.90;;;;;;5051116;28;20212;-69
2022/10/17 06:28:12;;;;;;;8.20;1.67;;;20.00;61.60;;;;;;5047362;28;20188;-69
2022/10/17 06:30:40;;;;;;;8.50;1.70;;;20.00;61.60;;;;;;5045720;28;20196;-69
2022/10/17 06:33:07;;;;;;;6.20;1.67;;;19.60;62.40;;;;;;5046947;28;20696;-71
2022/10/17 06:35:35;;;;;;;9.33;2.20;;;19.30;63.70;;;;;;5051084;28;20184;-70
2022/10/17 06:38:04;;;;;;;8.57;1.80;;;19.20;63.90;;;;;;5048808;28;20234;-70
2022/10/17 06:40:31;;;;;;;10.03;1.80;;;19.10;65.00;;;;;;5049915;28;20665;-70
2022/10/17 06:42:58;;;;;;;8.03;1.53;;;18.90;66.10;;;;;;5045438;28;20216;-69
2022/10/17 06:45:26;;;;;;;10.00;1.80;;;18.90;66.20;;;;;;5047091;28;20188;-70
2022/10/17 06:47:54;;;;;;;9.70;2.37;;;18.80;66.00;;;;;;5051568;28;20195;-71
2022/10/17 06:50:21;;;;;;;12.20;1.97;;;18.60;67.20;;;;;;5043620;28;20221;-70
2022/10/17 06:52:51;;;;;;;10.30;1.83;;;18.60;67.70;;;;;;5044969;28;20196;-69
2022/10/17 06:55:18;;;;;;;8.60;1.73;;;18.50;67.50;;;;;;5042129;28;20195;-70
2022/10/17 06:57:45;;;;;;;8.50;3.63;;;18.50;68.10;;;;;;5050240;28;20183;-71
2022/10/17 07:00:13;;;;;;;15.20;3.67;;;18.30;68.90;;;;;;5045507;28;20265;-70
2022/10/17 07:02:43;;;;;;;10.67;2.30;;;18.20;68.60;;;;;;5052362;28;20195;-70
2022/10/17 07:05:11;;;;;;;11.07;1.87;;;18.10;68.80;;;;;;5051946;28;20667;-70
2022/10/17 07:07:38;;;;;;;6.67;1.90;;;18.00;68.50;;;;;;5047935;28;20246;-71
2022/10/17 07:10:09;;;;;;;8.83;1.90;;;17.90;68.70;;;;;;5049188;28;20537;-68
2022/10/17 07:12:36;;;;;;;11.83;1.87;;;17.80;69.10;;;;;;5049504;28;20674;-70
2022/10/17 07:15:05;;;;;;;6.30;1.43;;;17.80;69.60;;;;;;5049544;28;20669;-71
2022/10/17 07:17:32;;;;;;;9.00;1.93;;;17.90;69.50;;;;;;5042649;28;20186;-71
2022/10/17 07:20:00;;;;;;;9.60;2.00;;;17.80;69.90;;;;;;5052255;28;20187;-70
2022/10/17 07:22:27;;;;;;;8.27;2.03;;;17.80;69.60;;;;;;5051898;28;20173;-70
2022/10/17 07:24:54;;;;;;;7.50;1.67;;;17.70;69.70;;;;;;5054596;28;20198;-70
2022/10/17 07:27:22;;;;;;;9.77;1.90;;;17.70;70.00;;;;;;5057341;28;20266;-71
2022/10/17 07:29:49;;;;;;;8.13;2.07;;;18.00;69.50;;;;;;5068584;28;20183;-70
2022/10/17 07:32:16;;;;;;;8.90;1.90;;;17.90;69.80;;;;;;5063397;28;20179;-71
2022/10/17 07:34:44;;;;;;;8.47;1.90;;;17.80;70.10;;;;;;5058956;28;20181;-70
2022/10/17 07:37:11;;;;;;;9.17;2.00;;;17.80;70.40;;;;;;5060405;28;20196;-69
2022/10/17 07:39:39;;;;;;;8.70;1.90;;;17.70;70.70;;;;;;5053185;28;20191;-71
2022/10/17 07:42:09;;;;;;;6.77;2.13;;;17.50;71.70;;;;;;5053145;28;20635;-70
2022/10/17 07:44:36;;;;;;;10.60;2.07;;;17.30;71.80;;;;;;5059031;28;20269;-71
2022/10/17 07:47:04;;;;;;;13.57;2.10;;;17.30;71.90;;;;;;5050099;28;20230;-72
2022/10/17 07:49:31;;;;;;;10.13;2.30;;;17.30;72.10;;;;;;5051149;28;20565;-71
2022/10/17 07:51:58;;;;;;;9.93;2.20;;;17.20;72.10;;;;;;5054155;28;20187;-70
2022/10/17 07:54:26;;;;;;;10.10;2.67;;;17.20;72.70;;;;;;5055342;28;20606;-70
2022/10/17 07:56:53;;;;;;;9.00;2.10;;;17.20;73.00;;;;;;5052982;28;20187;-69
2022/10/17 07:59:21;;;;;;;13.93;2.37;;;17.20;73.20;;;;;;5053262;28;20378;-68
2022/10/17 08:01:49;;;;;;;9.77;1.90;;;17.10;73.20;;;;;;5052520;28;20191;-70
2022/10/17 08:04:16;;;;;;;5.53;1.73;;;17.00;73.20;;;;;;5043887;28;20223;-72
2022/10/17 08:06:43;;;;;;;11.87;2.43;;;16.80;73.10;;;;;;5046736;28;20180;-70
2022/10/17 08:09:11;;;;;;;10.87;2.40;;;16.90;73.30;;;;;;5045361;28;20222;-70
2022/10/17 08:11:38;;;;;;;6.63;2.10;;;16.80;73.70;;;;;;5052903;28;20274;-69
2022/10/17 08:14:06;;;;;;;10.83;2.53;;;16.80;74.00;;;;;;5052913;28;20547;-69
2022/10/17 08:16:33;;;;;;;8.50;2.40;;;16.80;74.50;;;;;;5052701;28;20179;-69
2022/10/17 08:19:01;;;;;;;11.47;2.53;;;16.80;74.40;;;;;;5052563;28;20186;-68
2022/10/17 08:21:28;;;;;;;10.20;2.20;;;16.70;74.50;;;;;;5037719;28;20282;-69
2022/10/17 08:23:55;;;;;;;10.23;2.37;;;16.60;74.40;;;;;;5052338;28;20221;-69
2022/10/17 08:26:23;;;;;;;14.23;2.10;;;16.50;74.60;;;;;;5051410;28;20190;-69
2022/10/17 08:28:50;;;;;;;13.37;2.53;;;16.50;74.80;;;;;;5050126;28;20222;-68
2022/10/17 08:31:19;;;;;;;9.57;2.10;;;16.50;75.30;;;;;;5049324;28;20705;-70
2022/10/17 08:33:48;;;;;;;11.83;2.37;;;16.50;75.40;;;;;;5052266;28;20213;-69
2022/10/17 08:36:19;;;;;;;15.67;2.50;;;16.40;75.40;;;;;;5052170;28;20176;-70
2022/10/17 08:38:46;;;;;;;8.93;2.30;;;16.40;75.50;;;;;;5050595;28;20226;-68
2022/10/17 08:41:38;;;;;;;11.37;2.40;;;16.40;75.70;;;;;;5052460;28;20636;-68
2022/10/17 08:44:35;;;;;;;15.57;2.80;;;16.40;75.90;;;;;;5052479;28;20641;-68
2022/10/17 08:47:12;;;;;;;10.13;2.10;;;16.40;75.80;;;;;;5048958;28;20311;-70
2022/10/17 08:49:47;;;;;;;7.50;2.20;;;16.40;75.70;;;;;;5044684;28;20182;-69
2022/10/17 08:52:18;;;;;;;10.37;2.20;;;16.50;75.80;;;;;;5049763;28;20171;-69
2022/10/17 08:54:48;;;;;;;7.27;2.40;;;16.50;76.00;;;;;;5039003;28;20244;-69
2022/10/17 08:57:18;;;;;;;10.60;2.50;;;16.60;75.80;;;;;;5048599;28;20431;-69
2022/10/17 08:59:51;;;;;;;8.27;2.30;;;16.50;75.70;;;;;;5052353;28;20187;-69
2022/10/17 09:02:42;;;;;;;11.17;2.00;;;16.50;75.40;;;;;;5051378;28;20183;-69
2022/10/17 09:05:18;;;;;;;11.70;2.27;;;16.60;75.70;;;;;;5052215;28;20180;-69
2022/10/17 09:08:27;;;;;;;7.77;1.80;;;16.60;75.50;;;;;;5052614;28;20658;-68
2022/10/17 09:11:00;;;;;;;8.33;2.00;;;16.60;75.20;;;;;;5035567;28;20200;-71
2022/10/17 09:13:30;;;;;;;6.57;1.90;;;16.60;75.30;;;;;;5052347;28;20170;-69
2022/10/17 09:16:18;;;;;;;7.93;2.00;;;16.60;75.50;;;;;;5051363;28;20183;-69
2022/10/17 09:19:07;;;;;;;9.77;2.13;;;16.60;75.00;;;;;;5051717;28;20210;-69
2022/10/17 09:22:08;;;;;;;4.73;2.00;;;16.70;75.20;;;;;;5051911;28;20179;-69
2022/10/17 09:24:35;;;;;;;14.37;1.90;;;16.70;74.90;;;;;;5040513;28;20223;-69
2022/10/17 09:27:03;;;;;;;7.40;2.27;;;16.70;74.60;;;;;;5050979;28;20187;-69
2022/10/17 09:29:31;;;;;;;11.23;1.77;;;16.70;74.70;;;;;;5042789;28;20184;-70
2022/10/17 09:32:03;;;;;;;9.57;1.87;;;16.70;74.80;;;;;;5051572;28;20634;-69
2022/10/17 09:34:32;;;;;;;9.00;1.90;;;16.70;74.60;;;;;;5046673;28;20638;-69
2022/10/17 09:37:01;;;;;;;9.03;1.90;;;16.70;74.70;;;;;;5046781;28;20589;-70
2022/10/17 09:39:32;;;;;;;9.60;1.87;;;16.70;74.70;;;;;;5051271;28;20187;-69
2022/10/17 09:42:03;;;;;;;14.50;2.77;;;16.70;74.90;;;;;;5051963;28;20183;-70
2022/10/17 09:45:03;;;;;;;12.60;2.07;;;16.70;75.00;;;;;;5051740;28;20215;-71
2022/10/17 09:47:56;;;;;;;7.70;2.00;;;16.70;74.80;;;;;;5050368;28;20235;-69
2022/10/17 09:50:33;;;;;;;5.37;2.00;;;16.70;74.90;;;;;;5050767;28;20661;-69
2022/10/17 09:53:09;;;;;;;7.13;1.63;;;16.70;74.40;;;;;;5049460;28;20677;-70
2022/10/17 09:55:50;;;;;;;12.10;2.00;;;16.70;74.80;;;;;;5055263;28;20268;-68
2022/10/17 09:58:19;;;;;;;6.13;1.80;;;16.80;74.60;;;;;;5054726;28;20259;-70
2022/10/17 10:00:48;;;;;;;9.13;2.33;;;16.80;74.60;;;;;;5040468;28;20195;-68
2022/10/17 10:03:22;;;;;;;7.27;1.67;;;16.80;74.70;;;;;;5041745;28;20230;-70
2022/10/17 10:06:10;;;;;;;10.67;1.90;;;16.80;74.50;;;;;;5048032;28;20188;-69
2022/10/17 10:08:53;;;;;;;6.63;1.80;;;16.80;74.70;;;;;;5054641;28;20173;-69
2022/10/17 10:11:43;;;;;;;7.10;1.53;;;16.70;74.60;;;;;;5054861;28;20182;-69
2022/10/17 10:14:35;;;;;;;13.20;1.87;;;16.70;74.50;;;;;;5057347;28;20180;-68
2022/10/17 10:17:05;;;;;;;7.40;1.60;;;16.70;74.70;;;;;;5048896;28;20183;-68
2022/10/17 10:19:33;;;;;;;12.00;2.30;;;16.70;74.50;;;;;;5053965;28;20253;-68
2022/10/17 10:22:02;;;;;;;10.50;2.10;;;16.70;74.80;;;;;;5054389;28;20186;-68
2022/10/17 10:24:30;;;;;;;9.47;1.63;;;16.80;75.30;;;;;;5052847;28;20210;-69
2022/10/17 10:27:00;;;;;;;9.47;2.33;;;16.70;75.30;;;;;;5046887;28;20274;-69
2022/10/17 10:29:36;;;;;;;6.80;2.27;;;16.70;75.60;;;;;;5052740;28;20178;-69
2022/10/17 10:32:20;;;;;;;13.63;2.47;;;16.70;75.90;;;;;;5054264;28;20198;-69
2022/10/17 10:35:08;;;;;;;12.30;2.00;;;16.60;75.80;;;;;;5053967;28;20175;-68
2022/10/17 10:37:44;;;;;;;11.97;2.20;;;16.60;75.60;;;;;;5053528;28;20182;-69
2022/10/17 10:40:23;;;;;;;7.13;1.90;;;16.60;75.00;;;;;;5054664;28;20183;-68
2022/10/17 10:42:53;;;;;;;9.33;2.33;;;16.60;74.80;;;;;;5054396;28;20187;-70
2022/10/17 10:45:43;;;;;;;8.20;1.70;;;16.70;75.00;;;;;;5042698;28;20384;-69
2022/10/17 10:48:33;;;;;;;6.17;1.90;;;16.70;75.40;;;;;;5054430;28;20572;-69
2022/10/17 10:51:16;;;;;;;10.33;2.20;;;16.70;75.20;;;;;;5048048;28;20190;-69
2022/10/17 10:54:13;;;;;;;5.43;1.60;;;16.70;75.00;;;;;;5077824;28;20545;-69
2022/10/17 10:57:09;;;;;;;8.07;1.87;;;16.70;74.90;;;;;;5050211;28;20201;-69
2022/10/17 10:59:45;;;;;;;10.47;2.07;;;16.70;75.30;;;;;;5046129;28;20211;-70
2022/10/17 11:02:27;;;;;;;13.90;2.00;;;16.70;75.30;;;;;;5050091;28;20194;-69
2022/10/17 11:05:42;;;;;;;9.97;1.83;;;16.70;75.00;;;;;;5052518;28;20215;-67
2022/10/17 11:08:42;;;;;;;9.43;1.70;;;16.70;75.30;;;;;;5052629;28;20170;-68
2022/10/17 11:11:44;;;;;;;13.67;2.00;;;16.70;74.90;;;;;;5041935;28;20178;-69
2022/10/17 11:14:37;;;;;;;7.33;2.10;;;16.70;74.70;;;;;;5042381;28;20195;-69
2022/10/17 11:17:32;;;;;;;10.33;2.33;;;16.70;74.70;;;;;;5048563;28;20214;-69
2022/10/17 11:20:21;;;;;;;10.83;1.90;;;16.70;75.00;;;;;;5051739;28;20651;-69
2022/10/17 11:22:59;;;;;;;8.27;2.20;;;16.70;74.90;;;;;;5051971;28;20189;-69
2022/10/17 11:25:37;;;;;;;8.40;1.80;;;16.70;75.00;;;;;;5051906;28;20260;-68
2022/10/17 11:28:13;;;;;;;6.67;1.43;;;16.70;74.90;;;;;;5040940;28;20186;-68
2022/10/17 11:31:03;;;;;;;5.83;1.53;;;16.60;75.00;;;;;;5052922;28;20182;-69
2022/10/17 11:33:51;;;;;;;9.43;2.17;;;16.60;75.20;;;;;;5053492;28;20645;-69
2022/10/17 11:36:23;;;;;;;10.33;1.40;;;16.60;75.30;;;;;;5052634;28;20266;-68
2022/10/17 11:39:17;;;;;;;6.27;1.47;;;16.50;75.30;;;;;;5043326;28;20187;-68
2022/10/17 11:41:50;;;;;;;9.03;1.93;;;16.50;75.50;;;;;;5039613;28;20168;-68
2022/10/17 11:44:26;;;;;;;15.03;2.13;;;16.40;75.70;;;;;;5052154;28;20585;-68
2022/10/17 11:47:40;;;;;;;4.40;1.73;;;16.40;75.80;;;;;;5039198;28;20308;-68
2022/10/17 11:50:43;;;;;;;5.97;1.57;;;16.30;75.50;;;;;;5035395;28;20552;-69
2022/10/17 11:53:20;;;;;;;8.10;1.77;;;16.40;75.20;;;;;;5040265;28;20234;-69
2022/10/17 11:55:49;;;;;;;8.67;2.00;;;16.40;75.20;;;;;;5053330;28;20186;-69
2022/10/17 11:58:43;;;;;;;7.87;1.93;;;16.40;75.20;;;;;;5052702;28;20185;-68
2022/10/17 12:01:45;;;;;;;7.60;1.70;;;16.40;75.30;;;;;;5044757;28;20187;-68
2022/10/17 12:04:27;;;;;;;11.80;2.00;;;16.40;75.70;;;;;;5039602;28;20213;-70
2022/10/17 12:07:29;;;;;;;8.03;1.90;;;16.40;75.40;;;;;;5053003;28;20522;-69
2022/10/17 12:10:05;;;;;;;11.50;2.33;;;16.40;75.70;;;;;;5044637;28;20180;-70
2022/10/17 12:12:34;;;;;;;7.20;1.90;;;16.30;75.30;;;;;;5052134;28;20235;-69
2022/10/17 12:15:25;;;;;;;5.83;1.43;;;16.40;75.50;;;;;;5049121;28;20273;-71
2022/10/17 12:17:59;;;;;;;5.80;1.60;;;16.40;75.40;;;;;;5034952;28;20186;-68
2022/10/17 12:20:37;;;;;;;6.10;2.13;;;16.30;75.50;;;;;;5048858;28;20268;-68
2022/10/17 12:23:21;;;;;;;14.43;2.10;;;16.40;75.90;;;;;;5041952;28;20197;-71
2022/10/17 12:25:53;;;;;;;5.83;1.73;;;16.30;75.90;;;;;;5052822;28;20179;-70
2022/10/17 12:28:43;;;;;;;9.57;1.60;;;16.30;76.10;;;;;;5052842;28;20221;-68
2022/10/17 12:31:20;;;;;;;11.73;1.47;;;16.30;76.20;;;;;;5051591;28;20182;-69
2022/10/17 12:33:57;;;;;;;7.23;1.57;;;16.30;76.30;;;;;;5052496;28;20648;-70
2022/10/17 12:36:27;;;;;;;10.00;2.20;;;16.30;76.10;;;;;;5048678;28;20203;-70
2022/10/17 12:39:05;;;;;;;4.97;1.93;;;16.30;75.90;;;;;;5052171;28;20176;-70
2022/10/17 12:41:38;;;;;;;9.17;2.00;;;16.30;76.20;;;;;;5052466;28;20174;-70
2022/10/17 12:44:26;;;;;;;7.07;1.60;;;16.20;76.50;;;;;;5052343;28;20241;-69
2022/10/17 12:46:58;;;;;;;8.73;2.07;;;16.20;76.30;;;;;;5047082;28;20219;-70
2022/10/17 12:49:46;;;;;;;6.63;1.43;;;16.20;76.20;;;;;;5050616;28;20535;-69
2022/10/17 12:52:24;;;;;;;6.10;1.60;;;16.20;76.30;;;;;;5042022;28;20196;-70
2022/10/17 12:54:59;;;;;;;8.27;1.80;;;16.30;76.00;;;;;;5051121;28;20220;-68
2022/10/17 12:57:33;;;;;;;10.30;2.23;;;16.20;76.00;;;;;;5050779;28;20179;-68
2022/10/17 13:00:11;;;;;;;8.77;1.60;;;16.20;76.10;;;;;;5052034;28;20225;-69
2022/10/17 13:02:40;;;;;;;11.03;2.33;;;16.20;76.40;;;;;;5052024;28;20166;-69
2022/10/17 13:05:30;;;;;;;8.30;1.77;;;16.20;76.60;;;;;;5051236;28;20185;-70
2022/10/17 13:07:59;;;;;;;10.60;1.87;;;16.10;76.90;;;;;;5041755;28;20197;-68
2022/10/17 13:10:37;;;;;;;8.30;2.13;;;16.10;77.10;;;;;;5052098;28;20191;-69
2022/10/17 13:13:20;;;;;;;8.17;2.20;;;16.00;77.40;;;;;;5054152;28;20530;-68
2022/10/17 13:15:49;;;;;;;8.13;2.10;;;16.00;77.60;;;;;;5049013;28;20186;-69
2022/10/17 13:18:23;;;;;;;9.17;1.60;;;16.00;78.10;;;;;;5050229;28;20176;-69